Time;durP1;ratioP1;P1;durP2;ratioP2;P2;SDS_P1;SDS_P2;PMS_P1;PMS_P2;Temp;Humidity;BMP_temperature;BMP_pressure;BME280_temperature;BME280_humidity;BME280_pressure;Samples;Min_cycle;Max_cycle;Signal;HPM_P1;HPM_P2
2022/07/30 00:00:26;;;;;;;12.10;8.80;;;;;;;25.25;100.00;101147.63;2072635;28;20198;-64
2022/07/30 00:01:27;;;;;;;10.63;9.23;;;;;;;25.30;100.00;101149.66;2073432;28;20209;-64
2022/07/30 00:02:27;;;;;;;9.97;8.97;;;;;;;25.37;100.00;101146.28;2074100;28;20297;-64
2022/07/30 00:03:28;;;;;;;10.93;8.57;;;;;;;25.34;100.00;101150.13;2070747;28;20200;-64
2022/07/30 00:04:28;;;;;;;11.30;8.67;;;;;;;25.44;100.00;101150.63;2076495;28;20187;-64
2022/07/30 00:05:29;;;;;;;11.60;8.33;;;;;;;25.46;100.00;101145.97;2074680;28;20217;-64
2022/07/30 00:06:29;;;;;;;11.47;8.67;;;;;;;25.50;100.00;101155.00;2062700;28;20634;-64
2022/07/30 00:07:30;;;;;;;9.70;8.37;;;;;;;25.12;100.00;101113.31;2063191;28;20200;-64
2022/07/30 00:08:30;;;;;;;11.23;9.03;;;;;;;25.49;100.00;101161.94;2068507;28;20209;-64
2022/07/30 00:09:31;;;;;;;10.30;8.80;;;;;;;24.91;100.00;101080.16;2072578;28;20229;-64
2022/07/30 00:10:31;;;;;;;12.17;8.50;;;;;;;25.46;100.00;101165.84;2070530;28;20174;-64
2022/07/30 00:11:32;;;;;;;9.47;8.37;;;;;;;25.22;100.00;101136.50;2073162;28;20651;-64
2022/07/30 00:12:33;;;;;;;11.10;8.80;;;;;;;25.27;100.00;101161.25;2075488;28;20201;-64
2022/07/30 00:13:33;;;;;;;9.50;8.40;;;;;;;25.25;100.00;101164.63;2074112;28;20193;-64
2022/07/30 00:14:34;;;;;;;11.77;8.30;;;;;;;25.29;100.00;101164.38;2077737;28;20193;-64
2022/07/30 00:15:35;;;;;;;12.73;8.30;;;;;;;25.29;100.00;101165.13;2068882;28;20197;-64
2022/07/30 00:16:36;;;;;;;10.00;8.83;;;;;;;25.33;100.00;101164.88;2072828;28;20205;-64
2022/07/30 00:17:36;;;;;;;9.67;8.67;;;;;;;25.10;100.00;101135.00;2077211;28;20186;-64
2022/07/30 00:18:37;;;;;;;9.60;8.70;;;;;;;25.25;100.00;101173.16;2074297;28;20197;-64
2022/07/30 00:19:37;;;;;;;11.33;8.40;;;;;;;25.24;100.00;101159.44;2075166;28;20702;-63
2022/07/30 00:20:39;;;;;;;9.40;8.33;;;;;;;25.10;100.00;101155.63;2076970;28;20214;-64
2022/07/30 00:21:39;;;;;;;11.07;9.03;;;;;;;24.70;100.00;101088.22;2079183;28;20235;-64
2022/07/30 00:22:40;;;;;;;10.23;9.23;;;;;;;24.95;100.00;101121.13;2076549;28;20197;-64
2022/07/30 00:23:40;;;;;;;9.77;8.67;;;;;;;25.25;100.00;101167.47;2073139;28;20204;-64
2022/07/30 00:24:40;;;;;;;12.77;8.60;;;;;;;25.21;100.00;101151.97;2071285;28;20239;-64
2022/07/30 00:25:41;;;;;;;11.77;9.00;;;;;;;25.29;100.00;101167.94;2076712;28;20205;-64
2022/07/30 00:26:41;;;;;;;9.80;8.80;;;;;;;25.30;100.00;101166.69;2072578;28;20189;-64
2022/07/30 00:27:43;;;;;;;9.97;8.83;;;;;;;24.67;100.00;101069.38;2074321;28;20263;-64
2022/07/30 00:28:43;;;;;;;9.50;8.50;;;;;;;25.27;100.00;101162.03;2068398;28;20655;-64
2022/07/30 00:29:44;;;;;;;11.47;8.30;;;;;;;24.93;100.00;101105.94;2072399;28;20568;-64
2022/07/30 00:30:44;;;;;;;9.63;8.23;;;;;;;25.07;100.00;101110.53;2068212;28;20205;-64
2022/07/30 00:31:45;;;;;;;9.43;8.10;;;;;;;25.33;100.00;101156.34;2074413;28;20225;-64
2022/07/30 00:32:46;;;;;;;9.70;7.93;;;;;;;24.98;100.00;101105.13;2076819;28;20216;-64
2022/07/30 00:33:46;;;;;;;9.30;8.33;;;;;;;24.90;100.00;101092.78;2075208;28;20202;-64
2022/07/30 00:34:46;;;;;;;8.23;7.40;;;;;;;25.34;100.00;101155.81;2069450;28;20618;-64
2022/07/30 00:35:47;;;;;;;8.83;7.93;;;;;;;25.37;100.00;101154.78;2068386;28;20186;-64
2022/07/30 00:36:47;;;;;;;9.83;8.57;;;;;;;24.87;100.00;101080.41;2080963;28;20618;-64
2022/07/30 00:37:48;;;;;;;8.73;7.93;;;;;;;25.36;100.00;101155.28;2078281;28;20181;-64
2022/07/30 00:38:49;;;;;;;11.97;8.33;;;;;;;25.33;100.00;101156.34;2077872;28;20675;-64
2022/07/30 00:39:49;;;;;;;11.00;8.53;;;;;;;25.45;100.00;101172.03;2074582;28;20200;-64
2022/07/30 00:40:50;;;;;;;9.93;8.20;;;;;;;25.30;100.00;101144.00;2072715;28;20583;-64
2022/07/30 00:41:57;;;;;;;11.03;7.87;;;;;;;25.50;100.00;101172.03;2075146;28;20194;-64
2022/07/30 00:42:57;;;;;;;10.13;8.37;;;;;;;25.51;100.00;101176.41;2076979;28;20463;-64
2022/07/30 00:43:58;;;;;;;9.33;7.67;;;;;;;25.52;100.00;101185.66;2079781;28;20185;-64
2022/07/30 00:44:58;;;;;;;12.33;8.10;;;;;;;25.55;100.00;101181.78;2079720;28;20663;-64
2022/07/30 00:45:58;;;;;;;9.10;8.03;;;;;;;25.56;100.00;101175.59;2079010;28;20177;-64
2022/07/30 00:46:59;;;;;;;11.03;7.17;;;;;;;25.57;100.00;101177.13;2073963;28;20185;-64
2022/07/30 00:48:00;;;;;;;8.97;7.60;;;;;;;25.55;100.00;101165.56;2075335;28;20264;-64
2022/07/30 00:49:00;;;;;;;8.10;7.30;;;;;;;25.59;100.00;101170.94;2078597;28;20702;-64
2022/07/30 00:50:04;;;;;;;15.50;8.07;;;;;;;25.60;100.00;101173.28;2076611;28;20721;-64
2022/07/30 00:51:05;;;;;;;7.83;7.03;;;;;;;25.58;100.00;101173.00;2074282;28;20276;-64
2022/07/30 00:52:05;;;;;;;8.33;7.33;;;;;;;25.11;100.00;101105.34;2077310;28;20185;-64
2022/07/30 00:53:06;;;;;;;10.33;7.40;;;;;;;25.05;100.00;101101.75;2072430;28;20457;-64
2022/07/30 00:54:06;;;;;;;7.93;7.03;;;;;;;25.54;100.00;101174.59;2073644;28;20196;-64
2022/07/30 00:55:10;;;;;;;7.87;7.10;;;;;;;25.47;100.00;101175.91;2071635;28;20194;-64
2022/07/30 00:56:10;;;;;;;9.03;7.30;;;;;;;25.47;100.00;101180.78;2073485;28;20197;-64
2022/07/30 00:57:11;;;;;;;8.23;7.27;;;;;;;25.48;100.00;101188.78;2072671;28;20244;-64
2022/07/30 00:58:11;;;;;;;10.30;7.33;;;;;;;25.46;100.00;101177.19;2065477;28;20262;-64
2022/07/30 00:59:12;;;;;;;9.60;7.37;;;;;;;25.30;100.00;101158.19;2072805;28;20204;-64
2022/07/30 01:00:14;;;;;;;9.87;7.27;;;;;;;25.44;100.00;101182.59;2079270;28;20212;-64
2022/07/30 01:01:15;;;;;;;10.70;6.90;;;;;;;25.44;100.00;101184.69;2077220;28;20178;-64
2022/07/30 01:02:15;;;;;;;12.80;7.73;;;;;;;25.44;100.00;101167.66;2077332;28;20243;-64
2022/07/30 01:03:16;;;;;;;10.07;7.50;;;;;;;25.51;100.00;101184.13;2080244;28;20201;-64
2022/07/30 01:04:16;;;;;;;10.07;7.23;;;;;;;25.49;100.00;101181.06;2079043;28;20196;-64
2022/07/30 01:05:17;;;;;;;11.63;7.30;;;;;;;25.45;100.00;101187.00;2068998;28;20205;-64
2022/07/30 01:06:17;;;;;;;9.03;7.37;;;;;;;25.00;100.00;101119.56;2070796;28;20186;-64
2022/07/30 01:07:18;;;;;;;14.87;7.70;;;;;;;25.46;100.00;101193.44;2069125;28;20281;-64
2022/07/30 01:08:18;;;;;;;9.70;7.30;;;;;;;25.01;100.00;101123.94;2070747;28;20185;-64
2022/07/30 01:09:19;;;;;;;8.50;7.20;;;;;;;25.33;100.00;101173.38;2072203;28;20264;-64
2022/07/30 01:10:19;;;;;;;10.23;7.30;;;;;;;25.39;100.00;101186.22;2074058;28;20173;-64
2022/07/30 01:11:27;;;;;;;10.00;7.80;;;;;;;25.45;100.00;101186.22;2073647;28;20197;-64
2022/07/30 01:12:28;;;;;;;7.63;6.73;;;;;;;25.25;100.00;101164.63;2081031;28;20200;-64
2022/07/30 01:13:28;;;;;;;8.40;7.50;;;;;;;25.35;100.00;101180.06;2075764;28;20286;-64
2022/07/30 01:14:29;;;;;;;7.60;6.47;;;;;;;25.13;100.00;101168.00;2078971;28;20197;-64
2022/07/30 01:15:30;;;;;;;12.30;7.13;;;;;;;25.21;100.00;101175.44;2076638;28;20201;-64
2022/07/30 01:16:32;;;;;;;10.20;6.73;;;;;;;25.05;100.00;101162.09;2080109;28;20186;-64
2022/07/30 01:17:34;;;;;;;8.37;6.00;;;;;;;24.95;100.00;101162.88;2074712;28;20181;-64
2022/07/30 01:20:01;;;;;;;8.80;6.53;;;;;;;25.14;100.00;101170.31;2076663;28;20181;-65
2022/07/30 01:21:08;;;;;;;9.73;6.67;;;;;;;25.21;100.00;101172.59;2060712;28;20186;-65
2022/07/30 01:22:20;;;;;;;8.27;6.67;;;;;;;25.26;100.00;101169.00;2062247;28;20277;-64
2022/07/30 01:23:30;;;;;;;7.83;6.40;;;;;;;25.29;100.00;101173.63;2069401;28;20178;-64
2022/07/30 01:24:39;;;;;;;8.13;6.87;;;;;;;25.22;100.00;101173.38;2080167;28;20616;-65
2022/07/30 01:25:57;;;;;;;10.83;6.77;;;;;;;25.01;100.00;101144.56;2076691;28;20186;-64
2022/07/30 01:26:59;;;;;;;7.87;6.30;;;;;;;25.26;100.00;101186.03;2060566;28;20206;-64
2022/07/30 01:28:06;;;;;;;10.77;6.20;;;;;;;25.35;100.00;101176.47;2066877;28;20186;-65
2022/07/30 01:29:08;;;;;;;7.73;5.57;;;;;;;25.37;100.00;101182.38;2070721;28;20235;-64
2022/07/30 01:30:10;;;;;;;9.63;5.93;;;;;;;25.38;100.00;101170.50;2078691;28;20181;-64
2022/07/30 01:31:12;;;;;;;6.97;5.33;;;;;;;25.04;100.00;101114.41;2076420;28;20280;-65
2022/07/30 01:32:15;;;;;;;6.47;4.83;;;;;;;25.06;100.00;101111.78;2077143;28;20185;-64
2022/07/30 01:33:18;;;;;;;7.63;4.70;;;;;;;25.30;100.00;101157.38;2077259;28;20196;-65
2022/07/30 01:34:19;;;;;;;11.27;5.27;;;;;;;25.33;100.00;101148.59;2077576;28;20332;-64
2022/07/30 01:35:23;;;;;;;7.47;4.80;;;;;;;25.33;100.00;101156.34;2074868;28;20190;-65
2022/07/30 01:36:25;;;;;;;6.13;4.53;;;;;;;25.40;100.00;101150.13;2060527;28;20292;-64
2022/07/30 01:37:28;;;;;;;8.40;4.70;;;;;;;25.45;100.00;101152.94;2062836;28;20682;-65
2022/07/30 01:38:30;;;;;;;5.80;4.67;;;;;;;25.34;100.00;101132.38;2072612;28;21133;-65
2022/07/30 01:39:32;;;;;;;6.70;5.33;;;;;;;25.49;100.00;101144.91;2073951;28;20438;-64
2022/07/30 01:40:33;;;;;;;6.77;4.60;;;;;;;25.54;100.00;101146.19;2072800;28;20178;-65
2022/07/30 01:41:35;;;;;;;7.63;4.30;;;;;;;25.14;100.00;101073.88;2077044;28;20247;-64
2022/07/30 01:42:38;;;;;;;10.17;4.93;;;;;;;25.59;100.00;101139.72;2071494;28;20288;-64
2022/07/30 01:43:41;;;;;;;8.10;4.60;;;;;;;25.59;100.00;101134.06;2072553;28;20223;-64
2022/07/30 01:44:44;;;;;;;9.40;4.47;;;;;;;25.09;100.00;101057.66;2070822;28;20309;-65
2022/07/30 01:45:47;;;;;;;7.57;4.80;;;;;;;25.65;100.00;101132.69;2072777;28;20284;-64
2022/07/30 01:46:47;;;;;;;8.93;4.57;;;;;;;25.21;100.00;101058.38;2068737;28;20282;-64
2022/07/30 01:47:51;;;;;;;9.87;5.13;;;;;;;25.67;100.00;101127.28;2069748;28;20233;-64
2022/07/30 01:48:53;;;;;;;7.80;4.67;;;;;;;25.76;100.00;101126.97;2064082;28;20277;-65
2022/07/30 01:49:56;;;;;;;7.53;4.53;;;;;;;25.74;100.00;101121.03;2062237;28;20197;-64
2022/07/30 01:50:59;;;;;;;8.73;4.73;;;;;;;25.43;100.00;101069.66;2071222;28;20185;-64
2022/07/30 01:52:01;;;;;;;6.33;4.73;;;;;;;25.83;100.00;101117.13;2073226;28;20185;-64
2022/07/30 01:53:02;;;;;;;8.70;5.07;;;;;;;25.87;100.00;101114.78;2069594;28;20248;-65
2022/07/30 01:54:08;;;;;;;6.43;4.73;;;;;;;25.83;100.00;101097.25;2073137;28;20269;-64
2022/07/30 01:55:13;;;;;;;5.93;4.33;;;;;;;25.92;100.00;101119.66;2068785;28;20197;-64
2022/07/30 01:56:14;;;;;;;8.23;4.70;;;;;;;25.73;100.00;101091.13;2073007;28;20186;-64
2022/07/30 01:57:19;;;;;;;7.77;4.50;;;;;;;25.89;100.00;101115.03;2069942;28;20203;-65
2022/07/30 01:58:23;;;;;;;7.43;5.17;;;;;;;25.83;100.00;101112.22;2071250;28;20316;-64
2022/07/30 01:59:25;;;;;;;7.60;4.53;;;;;;;25.82;100.00;101110.69;2071670;28;20201;-65
2022/07/30 02:00:29;;;;;;;7.73;4.87;;;;;;;25.82;100.00;101112.75;2072384;28;20208;-64
2022/07/30 02:01:30;;;;;;;7.07;4.50;;;;;;;25.66;100.00;101093.75;2072873;28;20201;-64
2022/07/30 02:02:30;;;;;;;8.20;4.67;;;;;;;25.86;100.00;101111.19;2072843;28;20185;-65
2022/07/30 02:03:31;;;;;;;9.10;4.80;;;;;;;25.80;100.00;101110.41;2072692;28;20953;-65
2022/07/30 02:04:32;;;;;;;7.27;4.43;;;;;;;25.82;100.00;101110.69;2072707;28;20500;-64
2022/07/30 02:05:34;;;;;;;6.33;4.80;;;;;;;25.79;100.00;101105.28;2073316;28;20228;-65
2022/07/30 02:06:42;;;;;;;10.87;4.87;;;;;;;25.65;100.00;101098.63;2072534;28;20202;-64
2022/07/30 02:07:57;;;;;;;4.77;4.27;;;;;;;25.88;100.00;101116.31;2073363;28;20618;-65
2022/07/30 02:09:02;;;;;;;7.40;4.40;;;;;;;25.90;100.00;101110.88;2072612;28;20201;-65
2022/07/30 02:10:16;;;;;;;7.27;4.80;;;;;;;25.61;100.00;101069.00;2068831;28;20197;-65
2022/07/30 02:12:45;;;;;;;8.30;4.37;;;;;;;25.60;100.00;101076.00;2072186;28;20185;-64
2022/07/30 02:13:52;;;;;;;8.03;4.80;;;;;;;25.87;100.00;101115.56;2072644;28;20186;-64
2022/07/30 02:15:14;;;;;;;6.17;4.53;;;;;;;25.88;100.00;101114.25;2072957;28;20186;-64
2022/07/30 02:16:36;;;;;;;9.43;4.93;;;;;;;25.83;100.00;101102.91;2061759;28;20197;-65
2022/07/30 02:18:09;;;;;;;8.07;4.87;;;;;;;25.95;100.00;101110.09;2063500;28;20574;-65
2022/07/30 02:19:15;;;;;;;7.77;4.60;;;;;;;25.87;100.00;101103.41;2043393;28;20219;-65
2022/07/30 02:20:17;;;;;;;6.27;4.37;;;;;;;25.92;100.00;101114.00;2074430;28;20256;-65
2022/07/30 02:21:20;;;;;;;7.13;4.50;;;;;;;25.96;100.00;101112.44;2072435;28;20186;-64
2022/07/30 02:22:24;;;;;;;9.40;4.67;;;;;;;25.96;100.00;101115.28;2063511;28;20227;-65
2022/07/30 02:23:27;;;;;;;6.20;4.37;;;;;;;25.99;100.00;101119.88;2067059;28;20174;-65
2022/07/30 02:24:30;;;;;;;8.47;4.60;;;;;;;25.86;100.00;101093.34;2073107;28;20304;-65
2022/07/30 02:25:34;;;;;;;8.77;4.57;;;;;;;26.01;100.00;101111.63;2073140;28;20576;-65
2022/07/30 02:26:37;;;;;;;9.37;4.70;;;;;;;26.04;100.00;101119.06;2071912;28;20270;-65
2022/07/30 02:27:39;;;;;;;8.17;4.60;;;;;;;26.03;100.00;101114.69;2072353;28;20592;-64
2022/07/30 02:28:42;;;;;;;9.50;4.87;;;;;;;26.03;100.00;101120.38;2069977;28;20189;-65
2022/07/30 02:29:46;;;;;;;7.33;4.60;;;;;;;26.04;100.00;101118.28;2071741;28;20257;-65
2022/07/30 02:30:51;;;;;;;10.47;4.37;;;;;;;26.03;100.00;101113.91;2072588;28;20458;-64
2022/07/30 02:31:55;;;;;;;6.60;4.40;;;;;;;25.72;100.00;101075.38;2073135;28;20197;-64
2022/07/30 02:33:02;;;;;;;6.27;4.30;;;;;;;26.03;100.00;101116.75;2072011;28;20194;-65
2022/07/30 02:34:05;;;;;;;9.63;4.60;;;;;;;26.01;100.00;101111.63;2073195;28;20260;-65
2022/07/30 02:35:26;;;;;;;6.73;5.00;;;;;;;25.72;100.00;101068.94;2072420;28;20574;-64
2022/07/30 02:36:28;;;;;;;7.43;4.57;;;;;;;25.83;100.00;101078.16;2071446;28;20371;-64
2022/07/30 02:37:31;;;;;;;6.33;4.50;;;;;;;26.16;100.00;101126.19;2070241;28;20264;-64
2022/07/30 02:38:33;;;;;;;10.13;5.00;;;;;;;26.10;100.00;101136.06;2072668;28;20216;-64
2022/07/30 02:39:36;;;;;;;8.00;4.50;;;;;;;26.09;100.00;101131.66;2072576;28;20182;-64
2022/07/30 02:40:40;;;;;;;6.97;4.33;;;;;;;26.10;100.00;101133.25;2071065;28;20197;-65
2022/07/30 02:41:43;;;;;;;7.50;4.77;;;;;;;26.14;100.00;101134.47;2072745;28;20190;-65
2022/07/30 02:42:47;;;;;;;12.17;5.53;;;;;;;25.77;100.00;101079.47;2072349;28;20238;-65
2022/07/30 02:43:51;;;;;;;10.97;4.90;;;;;;;26.22;100.00;101132.63;2069357;28;20191;-65
2022/07/30 02:44:53;;;;;;;9.53;5.40;;;;;;;26.22;100.00;101137.53;2067263;28;20181;-64
2022/07/30 02:45:55;;;;;;;6.53;4.70;;;;;;;26.17;100.00;101130.59;2069522;28;20243;-64
2022/07/30 02:46:57;;;;;;;8.70;4.57;;;;;;;26.19;100.00;101124.38;2063961;28;20182;-65
2022/07/30 02:48:02;;;;;;;12.83;4.83;;;;;;;26.37;100.00;101154.97;2073091;28;20181;-65
2022/07/30 02:49:05;;;;;;;7.77;4.53;;;;;;;26.33;100.00;101151.63;2073125;28;20197;-65
2022/07/30 02:50:08;;;;;;;7.80;4.70;;;;;;;26.38;100.00;101162.19;2068186;28;20189;-65
2022/07/30 02:51:09;;;;;;;9.20;4.80;;;;;;;26.35;100.00;101158.34;2072337;28;20232;-65
2022/07/30 02:52:12;;;;;;;7.80;4.83;;;;;;;26.33;100.00;101149.59;2072969;28;20208;-64
2022/07/30 02:53:14;;;;;;;8.43;4.53;;;;;;;26.42;100.00;101159.84;2068215;28;20216;-64
2022/07/30 02:54:18;;;;;;;7.90;4.73;;;;;;;26.38;100.00;101151.59;2072906;28;20782;-65
2022/07/30 02:55:19;;;;;;;6.47;4.73;;;;;;;26.38;100.00;101145.13;2072118;28;20214;-65
2022/07/30 02:56:21;;;;;;;5.73;4.70;;;;;;;25.86;100.00;101070.66;2069237;28;20178;-65
2022/07/30 02:57:22;;;;;;;10.03;4.70;;;;;;;26.02;100.00;101124.50;2059206;28;20189;-65
2022/07/30 02:58:24;;;;;;;6.97;4.47;;;;;;;26.23;100.00;101147.59;2061955;28;20230;-65
2022/07/30 02:59:27;;;;;;;7.67;4.77;;;;;;;26.26;100.00;101152.97;2070650;28;20243;-64
2022/07/30 03:00:29;;;;;;;7.63;4.40;;;;;;;26.17;100.00;101153.31;2069353;28;20213;-65
2022/07/30 03:01:32;;;;;;;7.13;4.80;;;;;;;26.15;100.00;101155.91;2070607;28;20189;-64
2022/07/30 03:02:34;;;;;;;7.20;4.40;;;;;;;26.18;100.00;101156.91;2068694;28;20210;-64
2022/07/30 03:03:36;;;;;;;7.30;5.00;;;;;;;25.80;100.00;101099.06;2069568;28;20192;-64
2022/07/30 03:04:38;;;;;;;8.73;4.63;;;;;;;26.15;100.00;101161.59;2069892;28;20857;-65
2022/07/30 03:05:40;;;;;;;8.77;4.87;;;;;;;25.87;100.00;101109.09;2061805;28;20233;-64
2022/07/30 03:06:42;;;;;;;7.87;5.10;;;;;;;25.76;100.00;101101.44;2062776;28;20209;-65
2022/07/30 03:07:43;;;;;;;7.93;4.60;;;;;;;25.88;100.00;101122.75;2072834;28;20181;-65
2022/07/30 03:08:45;;;;;;;6.93;4.63;;;;;;;26.12;100.00;101161.88;2072371;28;20261;-64
2022/07/30 03:09:46;;;;;;;8.47;4.80;;;;;;;26.11;100.00;101160.34;2068146;28;20233;-64
2022/07/30 03:10:48;;;;;;;8.17;4.87;;;;;;;26.07;100.00;101162.69;2065380;28;20197;-64
2022/07/30 03:11:51;;;;;;;7.23;5.13;;;;;;;25.98;100.00;101174.34;2066909;28;20289;-64
2022/07/30 03:12:53;;;;;;;7.90;5.00;;;;;;;25.93;100.00;101175.16;2070458;28;20201;-64
2022/07/30 03:13:55;;;;;;;7.00;4.80;;;;;;;25.93;100.00;101180.84;2069639;28;20226;-64
2022/07/30 03:14:57;;;;;;;9.07;5.10;;;;;;;25.96;100.00;101180.59;2071578;28;20248;-65
2022/07/30 03:15:59;;;;;;;8.90;4.80;;;;;;;26.01;100.00;101181.84;2071211;28;20184;-64
2022/07/30 03:17:02;;;;;;;7.40;4.70;;;;;;;25.64;100.00;101119.81;2069640;28;20260;-64
2022/07/30 03:18:04;;;;;;;7.27;4.83;;;;;;;25.94;100.00;101162.53;2067439;28;20181;-64
2022/07/30 03:19:09;;;;;;;6.10;4.40;;;;;;;25.57;100.00;101105.41;2067428;28;20209;-64
2022/07/30 03:20:14;;;;;;;8.40;5.20;;;;;;;26.06;100.00;101178.19;2061687;28;20193;-64
2022/07/30 03:21:16;;;;;;;6.20;4.50;;;;;;;25.56;100.00;101110.31;2062789;28;20194;-65
2022/07/30 03:22:18;;;;;;;8.07;4.87;;;;;;;25.99;100.00;101179.53;2072325;28;20190;-64
2022/07/30 03:23:21;;;;;;;9.97;4.93;;;;;;;25.61;100.00;101126.56;2072144;28;20205;-64
2022/07/30 03:24:23;;;;;;;8.93;4.80;;;;;;;26.04;100.00;101180.75;2068082;28;20194;-64
2022/07/30 03:25:26;;;;;;;9.13;4.87;;;;;;;25.65;100.00;101110.00;2069928;28;20186;-65
2022/07/30 03:26:29;;;;;;;11.07;4.90;;;;;;;26.14;100.00;101185.63;2062747;28;20188;-64
2022/07/30 03:27:29;;;;;;;11.67;4.77;;;;;;;26.17;100.00;101183.78;2062280;28;20602;-64
2022/07/30 03:28:33;;;;;;;7.10;4.70;;;;;;;26.08;100.00;101178.41;2072172;28;20229;-64
2022/07/30 03:29:36;;;;;;;11.23;4.27;;;;;;;25.63;100.00;101120.31;2072343;28;20177;-65
2022/07/30 03:30:36;;;;;;;7.50;4.73;;;;;;;26.01;100.00;101185.47;2063340;28;20192;-64
2022/07/30 03:31:39;;;;;;;8.13;4.77;;;;;;;25.68;100.00;101145.84;2059887;28;20269;-64
2022/07/30 03:32:40;;;;;;;8.87;4.63;;;;;;;26.10;100.00;101190.03;2071493;28;20198;-64
2022/07/30 03:33:42;;;;;;;6.57;4.80;;;;;;;25.98;100.00;101169.47;2067326;28;20194;-64
2022/07/30 03:34:44;;;;;;;11.50;5.50;;;;;;;26.11;100.00;101183.06;2070559;28;20178;-64
2022/07/30 03:35:47;;;;;;;7.53;4.80;;;;;;;25.81;100.00;101148.91;2071507;28;20198;-65
2022/07/30 03:36:49;;;;;;;9.13;4.90;;;;;;;25.49;100.00;101091.00;2072057;28;20186;-64
2022/07/30 03:37:50;;;;;;;9.30;4.90;;;;;;;26.01;100.00;101170.47;2070452;28;20181;-65
2022/07/30 03:38:51;;;;;;;6.90;4.53;;;;;;;26.10;100.00;101178.69;2058247;28;20225;-64
2022/07/30 03:39:56;;;;;;;10.40;5.37;;;;;;;26.03;100.00;101177.16;2060844;28;20179;-64
2022/07/30 03:40:58;;;;;;;10.47;4.90;;;;;;;25.91;100.00;101174.91;2066809;28;20194;-64
2022/07/30 03:41:59;;;;;;;7.90;4.97;;;;;;;25.96;100.00;101191.16;2070357;28;20186;-64
2022/07/30 03:43:00;;;;;;;8.70;5.03;;;;;;;25.92;100.00;101182.94;2070828;28;20244;-64
2022/07/30 03:44:01;;;;;;;9.17;5.03;;;;;;;25.55;100.00;101139.22;2067905;28;20182;-64
2022/07/30 03:45:06;;;;;;;9.10;4.87;;;;;;;25.81;100.00;101185.81;2070874;28;20721;-64
2022/07/30 03:46:09;;;;;;;9.57;4.67;;;;;;;25.81;100.00;101180.13;2075648;28;20690;-64
2022/07/30 03:47:09;;;;;;;5.77;4.80;;;;;;;25.69;100.00;101169.34;2070990;28;20271;-64
2022/07/30 03:48:12;;;;;;;6.63;4.50;;;;;;;25.90;100.00;101193.25;2070419;28;20196;-64
2022/07/30 03:49:13;;;;;;;7.40;4.90;;;;;;;25.78;100.00;101172.66;2065300;28;20201;-65
2022/07/30 03:50:14;;;;;;;9.47;5.13;;;;;;;25.83;100.00;101182.41;2064767;28;20193;-64
2022/07/30 03:51:15;;;;;;;6.57;5.00;;;;;;;26.06;100.00;101200.91;2072288;28;20268;-65
2022/07/30 03:52:17;;;;;;;9.33;4.63;;;;;;;26.13;100.00;101194.66;2077798;28;20195;-65
2022/07/30 03:53:18;;;;;;;7.87;4.60;;;;;;;25.59;100.00;101125.53;2070864;28;20185;-65
2022/07/30 03:54:19;;;;;;;7.83;4.73;;;;;;;25.93;100.00;101160.97;2071399;28;20276;-64
2022/07/30 03:55:21;;;;;;;8.33;5.07;;;;;;;26.17;100.00;101200.84;2072127;28;20182;-64
2022/07/30 03:56:21;;;;;;;8.63;4.50;;;;;;;26.22;100.00;101200.03;2071524;28;20185;-64
2022/07/30 03:57:22;;;;;;;8.17;4.77;;;;;;;26.23;100.00;101210.09;2071963;28;20185;-65
2022/07/30 03:58:23;;;;;;;7.37;4.83;;;;;;;26.16;100.00;101196.47;2072683;28;20205;-65
2022/07/30 03:59:23;;;;;;;9.33;4.80;;;;;;;26.27;100.00;101208.53;2074848;28;20219;-64
2022/07/30 04:00:25;;;;;;;8.77;5.23;;;;;;;26.27;100.00;101211.38;2076555;28;20189;-64
2022/07/30 04:01:26;;;;;;;8.77;5.00;;;;;;;26.27;100.00;101208.53;2074335;28;20200;-64
2022/07/30 04:02:26;;;;;;;9.90;5.00;;;;;;;26.27;100.00;101204.91;2065203;28;20638;-64
2022/07/30 04:03:30;;;;;;;7.37;4.60;;;;;;;26.20;100.00;101200.56;2065484;28;20320;-64
2022/07/30 04:04:30;;;;;;;6.63;4.87;;;;;;;26.24;100.00;101197.41;2068843;28;20232;-65
2022/07/30 04:05:31;;;;;;;5.90;4.67;;;;;;;26.17;100.00;101195.94;2075769;28;20199;-64
2022/07/30 04:06:32;;;;;;;9.20;4.60;;;;;;;26.19;100.00;101192.53;2073312;28;20170;-64
2022/07/30 04:07:32;;;;;;;8.27;5.13;;;;;;;25.86;100.00;101147.31;2073077;28;20246;-64
2022/07/30 04:08:33;;;;;;;8.20;4.77;;;;;;;26.20;100.00;101196.94;2081766;28;20271;-65
2022/07/30 04:09:33;;;;;;;7.83;4.83;;;;;;;26.13;100.00;101195.44;2074111;28;20205;-65
2022/07/30 04:10:34;;;;;;;9.00;5.00;;;;;;;26.12;100.00;101196.75;2064666;28;20203;-64
2022/07/30 04:11:34;;;;;;;7.17;4.30;;;;;;;25.69;100.00;101141.72;2068721;28;20224;-65
2022/07/30 04:12:35;;;;;;;8.93;4.67;;;;;;;26.03;100.00;101197.06;2072451;28;20173;-64
2022/07/30 04:13:35;;;;;;;7.00;4.53;;;;;;;26.03;100.00;101197.06;2062443;28;20217;-64
2022/07/30 04:14:40;;;;;;;5.53;4.60;;;;;;;26.03;100.00;101199.09;2065182;28;20240;-65
2022/07/30 04:15:55;;;;;;;8.97;4.67;;;;;;;26.02;100.00;101197.56;2069522;28;20197;-64
2022/07/30 04:17:03;;;;;;;8.80;4.93;;;;;;;25.97;100.00;101192.69;2070949;28;20279;-64
2022/07/30 04:18:05;;;;;;;5.97;4.53;;;;;;;25.54;100.00;101129.16;2076279;28;20196;-64
2022/07/30 04:19:09;;;;;;;7.40;4.73;;;;;;;26.01;100.00;101205.34;2074946;28;20204;-64
2022/07/30 04:20:19;;;;;;;8.80;4.60;;;;;;;26.05;100.00;101200.13;2072779;28;20193;-64
2022/07/30 04:21:23;;;;;;;8.43;4.80;;;;;;;26.04;100.00;101209.16;2077187;28;20662;-64
2022/07/30 04:22:29;;;;;;;9.23;4.63;;;;;;;26.03;100.00;101202.72;2076746;28;20184;-65
2022/07/30 04:23:31;;;;;;;6.80;4.77;;;;;;;25.86;100.00;101170.03;2076163;28;20280;-65
2022/07/30 04:24:32;;;;;;;6.40;4.63;;;;;;;26.06;100.00;101184.63;2077857;28;20652;-64
2022/07/30 04:25:33;;;;;;;5.87;4.77;;;;;;;26.08;100.00;101189.78;2071929;28;20173;-64
2022/07/30 04:26:35;;;;;;;9.57;4.73;;;;;;;26.30;100.00;101210.28;2076916;28;20178;-64
2022/07/30 04:27:36;;;;;;;8.07;5.33;;;;;;;25.75;100.00;101125.41;2079716;28;20184;-64
2022/07/30 04:28:37;;;;;;;8.50;5.33;;;;;;;26.28;100.00;101198.69;2078576;28;20197;-64
2022/07/30 04:29:39;;;;;;;8.93;5.17;;;;;;;26.34;100.00;101207.94;2076659;28;20186;-65
2022/07/30 04:30:40;;;;;;;7.37;3.93;;;;;;;26.30;100.00;101209.53;2075700;28;20594;-64
2022/07/30 04:31:41;;;;;;;10.43;5.00;;;;;;;26.31;100.00;101211.81;2073843;28;20181;-64
2022/07/30 04:32:41;;;;;;;8.27;4.67;;;;;;;26.07;100.00;101166.31;2073306;28;20223;-64
2022/07/30 04:33:45;;;;;;;8.20;5.03;;;;;;;26.41;100.00;101215.91;2076026;28;20177;-64
2022/07/30 04:34:50;;;;;;;5.40;4.73;;;;;;;26.47;100.00;101215.88;2075737;28;20600;-64
2022/07/30 04:35:50;;;;;;;6.50;4.50;;;;;;;26.47;100.00;101210.19;2076904;28;20264;-64
2022/07/30 04:36:51;;;;;;;11.63;5.10;;;;;;;26.38;100.00;101202.75;2077843;28;20178;-65
2022/07/30 04:37:51;;;;;;;8.20;4.87;;;;;;;26.45;100.00;101212.78;2077221;28;20185;-64
2022/07/30 04:38:52;;;;;;;8.37;4.97;;;;;;;26.48;100.00;101211.72;2081223;28;20212;-64
2022/07/30 04:39:53;;;;;;;10.00;5.23;;;;;;;26.48;100.00;101215.34;2071900;28;20305;-64
2022/07/30 04:40:54;;;;;;;9.47;5.00;;;;;;;26.54;100.00;101215.28;2074689;28;20255;-64
2022/07/30 04:41:54;;;;;;;13.87;5.30;;;;;;;26.56;100.00;101210.63;2074347;28;20677;-65
2022/07/30 04:42:55;;;;;;;6.40;4.80;;;;;;;26.04;100.00;101136.09;2074122;28;20225;-65
2022/07/30 04:43:56;;;;;;;6.03;4.90;;;;;;;26.22;100.00;101154.56;2072306;28;20177;-65
2022/07/30 04:44:56;;;;;;;6.70;4.53;;;;;;;26.42;100.00;101202.47;2073130;28;20174;-64
2022/07/30 04:45:57;;;;;;;11.10;4.97;;;;;;;26.04;100.00;101138.94;2074246;28;20663;-64
2022/07/30 04:46:57;;;;;;;7.10;5.07;;;;;;;26.46;100.00;101208.63;2073895;28;20727;-65
2022/07/30 04:47:58;;;;;;;6.10;4.90;;;;;;;26.42;100.00;101216.69;2078678;28;20196;-65
2022/07/30 04:48:58;;;;;;;12.10;5.00;;;;;;;26.14;100.00;101190.50;2075715;28;20194;-64